sensor_id;sensor_type;location;lat;lon;timestamp;P1;durP1;ratioP1;P2;durP2;ratioP2
47659;SDS011;33403;43.608;1.458;2023-05-20T00:00:57;14.05;;;5.75;;
47659;SDS011;33403;43.608;1.458;2023-05-20T00:03:22;9.25;;;6.07;;
47659;SDS011;33403;43.608;1.458;2023-05-20T00:05:48;10.13;;;6.38;;
47659;SDS011;33403;43.608;1.458;2023-05-20T00:08:14;9.00;;;6.22;;
47659;SDS011;33403;43.608;1.458;2023-05-20T00:10:40;12.60;;;6.43;;
47659;SDS011;33403;43.608;1.458;2023-05-20T00:13:05;11.10;;;6.35;;
47659;SDS011;33403;43.608;1.458;2023-05-20T00:15:31;13.52;;;6.45;;
47659;SDS011;33403;43.608;1.458;2023-05-20T00:17:59;9.48;;;6.53;;
47659;SDS011;33403;43.608;1.458;2023-05-20T00:20:25;10.73;;;5.72;;
47659;SDS011;33403;43.608;1.458;2023-05-20T00:22:51;12.02;;;6.60;;
47659;SDS011;33403;43.608;1.458;2023-05-20T00:25:16;12.60;;;6.28;;
47659;SDS011;33403;43.608;1.458;2023-05-20T00:27:42;9.30;;;6.40;;
47659;SDS011;33403;43.608;1.458;2023-05-20T00:30:08;15.82;;;6.65;;
47659;SDS011;33403;43.608;1.458;2023-05-20T00:32:35;12.05;;;6.57;;
47659;SDS011;33403;43.608;1.458;2023-05-20T00:35:01;9.88;;;6.38;;
47659;SDS011;33403;43.608;1.458;2023-05-20T00:37:27;11.23;;;6.10;;
47659;SDS011;33403;43.608;1.458;2023-05-20T00:39:52;12.27;;;6.57;;
47659;SDS011;33403;43.608;1.458;2023-05-20T00:42:19;9.90;;;6.40;;
47659;SDS011;33403;43.608;1.458;2023-05-20T00:44:48;8.95;;;6.70;;
47659;SDS011;33403;43.608;1.458;2023-05-20T00:47:15;10.95;;;6.63;;
47659;SDS011;33403;43.608;1.458;2023-05-20T00:49:46;9.93;;;6.50;;
47659;SDS011;33403;43.608;1.458;2023-05-20T00:52:14;11.73;;;6.45;;
47659;SDS011;33403;43.608;1.458;2023-05-20T00:54:41;15.15;;;6.72;;
47659;SDS011;33403;43.608;1.458;2023-05-20T00:57:08;9.80;;;6.55;;
47659;SDS011;33403;43.608;1.458;2023-05-20T00:59:35;13.55;;;6.50;;
47659;SDS011;33403;43.608;1.458;2023-05-20T01:02:02;12.35;;;6.65;;
47659;SDS011;33403;43.608;1.458;2023-05-20T01:04:31;13.13;;;6.93;;
47659;SDS011;33403;43.608;1.458;2023-05-20T01:07:01;12.25;;;6.55;;
47659;SDS011;33403;43.608;1.458;2023-05-20T01:09:30;9.55;;;6.85;;
47659;SDS011;33403;43.608;1.458;2023-05-20T01:14:45;12.18;;;7.15;;
47659;SDS011;33403;43.608;1.458;2023-05-20T01:17:15;13.18;;;7.40;;
47659;SDS011;33403;43.608;1.458;2023-05-20T01:19:44;10.52;;;6.88;;
47659;SDS011;33403;43.608;1.458;2023-05-20T01:22:12;10.30;;;6.63;;
47659;SDS011;33403;43.608;1.458;2023-05-20T01:24:45;11.70;;;6.78;;
47659;SDS011;33403;43.608;1.458;2023-05-20T01:27:17;13.57;;;7.10;;
47659;SDS011;33403;43.608;1.458;2023-05-20T01:29:44;14.13;;;7.05;;
47659;SDS011;33403;43.608;1.458;2023-05-20T01:32:21;9.80;;;7.15;;
47659;SDS011;33403;43.608;1.458;2023-05-20T01:34:49;13.02;;;7.68;;
47659;SDS011;33403;43.608;1.458;2023-05-20T01:37:16;13.30;;;8.02;;
47659;SDS011;33403;43.608;1.458;2023-05-20T01:39:46;11.55;;;7.00;;
47659;SDS011;33403;43.608;1.458;2023-05-20T01:42:14;12.55;;;6.80;;
47659;SDS011;33403;43.608;1.458;2023-05-20T01:44:41;9.95;;;7.03;;
47659;SDS011;33403;43.608;1.458;2023-05-20T01:47:07;12.45;;;6.93;;
47659;SDS011;33403;43.608;1.458;2023-05-20T01:49:33;13.40;;;7.80;;
47659;SDS011;33403;43.608;1.458;2023-05-20T01:51:59;12.10;;;7.47;;
47659;SDS011;33403;43.608;1.458;2023-05-20T01:54:24;13.77;;;7.80;;
47659;SDS011;33403;43.608;1.458;2023-05-20T01:56:50;11.00;;;7.25;;
47659;SDS011;33403;43.608;1.458;2023-05-20T01:59:16;11.15;;;6.97;;
47659;SDS011;33403;43.608;1.458;2023-05-20T02:01:42;13.73;;;7.20;;
47659;SDS011;33403;43.608;1.458;2023-05-20T02:04:07;12.50;;;7.10;;
47659;SDS011;33403;43.608;1.458;2023-05-20T02:06:33;12.75;;;7.45;;
47659;SDS011;33403;43.608;1.458;2023-05-20T02:08:59;11.88;;;7.07;;
47659;SDS011;33403;43.608;1.458;2023-05-20T02:11:25;12.23;;;7.25;;
47659;SDS011;33403;43.608;1.458;2023-05-20T02:13:51;12.05;;;6.97;;
47659;SDS011;33403;43.608;1.458;2023-05-20T02:16:17;13.18;;;7.40;;
47659;SDS011;33403;43.608;1.458;2023-05-20T02:18:42;13.13;;;7.40;;
47659;SDS011;33403;43.608;1.458;2023-05-20T02:21:08;13.45;;;7.65;;
47659;SDS011;33403;43.608;1.458;2023-05-20T02:23:34;10.57;;;7.22;;
47659;SDS011;33403;43.608;1.458;2023-05-20T02:26:00;15.30;;;7.45;;
47659;SDS011;33403;43.608;1.458;2023-05-20T02:28:26;12.45;;;7.20;;
47659;SDS011;33403;43.608;1.458;2023-05-20T02:30:51;13.10;;;7.30;;
47659;SDS011;33403;43.608;1.458;2023-05-20T02:33:20;13.40;;;7.18;;
47659;SDS011;33403;43.608;1.458;2023-05-20T02:35:46;13.07;;;6.78;;
47659;SDS011;33403;43.608;1.458;2023-05-20T02:38:11;11.20;;;7.30;;
47659;SDS011;33403;43.608;1.458;2023-05-20T02:40:37;11.02;;;7.07;;
47659;SDS011;33403;43.608;1.458;2023-05-20T02:43:03;11.73;;;7.13;;
47659;SDS011;33403;43.608;1.458;2023-05-20T02:45:29;16.70;;;9.43;;
47659;SDS011;33403;43.608;1.458;2023-05-20T02:47:55;19.02;;;9.80;;
47659;SDS011;33403;43.608;1.458;2023-05-20T02:50:20;47.00;;;22.02;;
47659;SDS011;33403;43.608;1.458;2023-05-20T02:52:46;56.55;;;30.15;;
47659;SDS011;33403;43.608;1.458;2023-05-20T02:55:12;61.47;;;35.92;;
47659;SDS011;33403;43.608;1.458;2023-05-20T02:57:38;65.63;;;37.53;;
47659;SDS011;33403;43.608;1.458;2023-05-20T03:00:05;41.08;;;21.83;;
47659;SDS011;33403;43.608;1.458;2023-05-20T03:02:35;26.85;;;16.15;;
47659;SDS011;33403;43.608;1.458;2023-05-20T03:05:00;17.00;;;9.60;;
47659;SDS011;33403;43.608;1.458;2023-05-20T03:07:29;15.25;;;9.02;;
47659;SDS011;33403;43.608;1.458;2023-05-20T03:09:55;16.33;;;8.88;;
47659;SDS011;33403;43.608;1.458;2023-05-20T03:12:23;13.20;;;8.15;;
47659;SDS011;33403;43.608;1.458;2023-05-20T03:14:50;16.33;;;8.10;;
47659;SDS011;33403;43.608;1.458;2023-05-20T03:17:19;13.85;;;8.10;;
47659;SDS011;33403;43.608;1.458;2023-05-20T03:19:45;14.88;;;8.77;;
47659;SDS011;33403;43.608;1.458;2023-05-20T03:22:11;13.07;;;7.88;;
47659;SDS011;33403;43.608;1.458;2023-05-20T03:24:37;15.40;;;8.38;;
47659;SDS011;33403;43.608;1.458;2023-05-20T03:27:03;13.82;;;7.95;;
47659;SDS011;33403;43.608;1.458;2023-05-20T03:29:28;14.43;;;7.80;;
47659;SDS011;33403;43.608;1.458;2023-05-20T03:31:55;14.85;;;7.80;;
47659;SDS011;33403;43.608;1.458;2023-05-20T03:34:21;12.80;;;7.47;;
47659;SDS011;33403;43.608;1.458;2023-05-20T03:36:46;14.82;;;7.60;;
47659;SDS011;33403;43.608;1.458;2023-05-20T03:39:12;13.57;;;7.80;;
47659;SDS011;33403;43.608;1.458;2023-05-20T03:41:37;14.07;;;7.78;;
47659;SDS011;33403;43.608;1.458;2023-05-20T03:44:03;11.93;;;8.00;;
47659;SDS011;33403;43.608;1.458;2023-05-20T03:46:29;13.38;;;7.85;;
47659;SDS011;33403;43.608;1.458;2023-05-20T03:48:56;13.93;;;7.53;;
47659;SDS011;33403;43.608;1.458;2023-05-20T03:51:22;14.60;;;7.57;;
47659;SDS011;33403;43.608;1.458;2023-05-20T03:53:47;12.35;;;7.78;;
47659;SDS011;33403;43.608;1.458;2023-05-20T03:56:13;11.60;;;7.65;;
47659;SDS011;33403;43.608;1.458;2023-05-20T03:58:39;12.73;;;7.45;;
47659;SDS011;33403;43.608;1.458;2023-05-20T04:01:04;14.10;;;8.10;;
47659;SDS011;33403;43.608;1.458;2023-05-20T04:03:30;13.95;;;7.88;;
47659;SDS011;33403;43.608;1.458;2023-05-20T04:05:56;11.55;;;7.93;;
47659;SDS011;33403;43.608;1.458;2023-05-20T04:08:21;14.70;;;8.05;;
47659;SDS011;33403;43.608;1.458;2023-05-20T04:10:50;13.13;;;8.25;;
47659;SDS011;33403;43.608;1.458;2023-05-20T04:13:19;16.65;;;8.52;;
47659;SDS011;33403;43.608;1.458;2023-05-20T04:15:46;14.10;;;7.90;;
47659;SDS011;33403;43.608;1.458;2023-05-20T04:18:12;15.63;;;8.48;;
47659;SDS011;33403;43.608;1.458;2023-05-20T04:20:38;18.30;;;9.02;;
47659;SDS011;33403;43.608;1.458;2023-05-20T04:23:05;13.73;;;8.30;;
47659;SDS011;33403;43.608;1.458;2023-05-20T04:25:31;15.13;;;8.30;;
47659;SDS011;33403;43.608;1.458;2023-05-20T04:27:58;12.90;;;7.47;;
47659;SDS011;33403;43.608;1.458;2023-05-20T04:30:24;13.13;;;7.93;;
47659;SDS011;33403;43.608;1.458;2023-05-20T04:32:50;16.40;;;8.30;;
47659;SDS011;33403;43.608;1.458;2023-05-20T04:35:16;14.50;;;8.05;;
47659;SDS011;33403;43.608;1.458;2023-05-20T04:37:42;15.00;;;8.55;;
47659;SDS011;33403;43.608;1.458;2023-05-20T04:40:13;15.90;;;8.48;;
47659;SDS011;33403;43.608;1.458;2023-05-20T04:42:39;14.02;;;8.30;;
47659;SDS011;33403;43.608;1.458;2023-05-20T04:45:05;13.95;;;8.43;;
47659;SDS011;33403;43.608;1.458;2023-05-20T04:47:33;14.15;;;8.20;;
47659;SDS011;33403;43.608;1.458;2023-05-20T04:50:02;17.60;;;8.40;;
47659;SDS011;33403;43.608;1.458;2023-05-20T04:52:35;14.98;;;8.23;;
47659;SDS011;33403;43.608;1.458;2023-05-20T04:55:01;11.43;;;8.15;;
47659;SDS011;33403;43.608;1.458;2023-05-20T04:57:27;13.68;;;8.75;;
47659;SDS011;33403;43.608;1.458;2023-05-20T04:59:53;15.10;;;8.15;;
47659;SDS011;33403;43.608;1.458;2023-05-20T05:02:22;14.82;;;8.50;;
47659;SDS011;33403;43.608;1.458;2023-05-20T05:04:48;15.75;;;8.38;;
47659;SDS011;33403;43.608;1.458;2023-05-20T05:07:14;12.43;;;8.32;;
47659;SDS011;33403;43.608;1.458;2023-05-20T05:09:40;14.40;;;8.20;;
47659;SDS011;33403;43.608;1.458;2023-05-20T05:12:05;15.35;;;8.13;;
47659;SDS011;33403;43.608;1.458;2023-05-20T05:14:31;12.82;;;8.27;;
47659;SDS011;33403;43.608;1.458;2023-05-20T05:16:57;12.07;;;8.27;;
47659;SDS011;33403;43.608;1.458;2023-05-20T05:19:22;13.30;;;8.40;;
47659;SDS011;33403;43.608;1.458;2023-05-20T05:21:48;16.48;;;8.10;;
47659;SDS011;33403;43.608;1.458;2023-05-20T05:24:14;15.43;;;8.52;;
47659;SDS011;33403;43.608;1.458;2023-05-20T05:26:39;13.48;;;8.10;;
47659;SDS011;33403;43.608;1.458;2023-05-20T05:29:05;12.20;;;7.57;;
47659;SDS011;33403;43.608;1.458;2023-05-20T05:31:31;18.10;;;8.18;;
47659;SDS011;33403;43.608;1.458;2023-05-20T05:33:56;14.43;;;8.20;;
47659;SDS011;33403;43.608;1.458;2023-05-20T05:36:22;17.80;;;8.10;;
47659;SDS011;33403;43.608;1.458;2023-05-20T05:38:49;15.05;;;8.30;;
47659;SDS011;33403;43.608;1.458;2023-05-20T05:41:15;14.18;;;7.82;;
47659;SDS011;33403;43.608;1.458;2023-05-20T05:43:41;15.75;;;8.43;;
47659;SDS011;33403;43.608;1.458;2023-05-20T05:46:06;17.17;;;8.20;;
47659;SDS011;33403;43.608;1.458;2023-05-20T05:48:34;11.60;;;7.85;;
47659;SDS011;33403;43.608;1.458;2023-05-20T05:51:00;16.25;;;8.02;;
47659;SDS011;33403;43.608;1.458;2023-05-20T05:53:26;14.98;;;8.20;;
47659;SDS011;33403;43.608;1.458;2023-05-20T05:55:52;16.38;;;8.40;;
47659;SDS011;33403;43.608;1.458;2023-05-20T05:58:18;13.75;;;8.35;;
47659;SDS011;33403;43.608;1.458;2023-05-20T06:00:43;13.25;;;7.57;;
47659;SDS011;33403;43.608;1.458;2023-05-20T06:03:09;14.32;;;7.70;;
47659;SDS011;33403;43.608;1.458;2023-05-20T06:05:35;11.60;;;7.70;;
47659;SDS011;33403;43.608;1.458;2023-05-20T06:08:01;15.60;;;7.90;;
47659;SDS011;33403;43.608;1.458;2023-05-20T06:10:26;12.75;;;8.13;;
47659;SDS011;33403;43.608;1.458;2023-05-20T06:12:52;15.43;;;8.13;;
47659;SDS011;33403;43.608;1.458;2023-05-20T06:15:18;12.65;;;7.80;;
47659;SDS011;33403;43.608;1.458;2023-05-20T06:17:43;12.52;;;7.60;;
47659;SDS011;33403;43.608;1.458;2023-05-20T06:20:09;14.25;;;7.28;;
47659;SDS011;33403;43.608;1.458;2023-05-20T06:22:35;14.15;;;8.20;;
47659;SDS011;33403;43.608;1.458;2023-05-20T06:25:01;16.60;;;8.23;;
47659;SDS011;33403;43.608;1.458;2023-05-20T06:27:27;12.00;;;7.80;;
47659;SDS011;33403;43.608;1.458;2023-05-20T06:29:52;11.85;;;7.72;;
47659;SDS011;33403;43.608;1.458;2023-05-20T06:32:18;12.98;;;7.72;;
47659;SDS011;33403;43.608;1.458;2023-05-20T06:34:44;14.90;;;7.57;;
47659;SDS011;33403;43.608;1.458;2023-05-20T06:37:09;12.35;;;7.25;;
47659;SDS011;33403;43.608;1.458;2023-05-20T06:39:36;11.95;;;7.43;;
47659;SDS011;33403;43.608;1.458;2023-05-20T06:42:01;14.40;;;8.00;;
47659;SDS011;33403;43.608;1.458;2023-05-20T06:44:27;13.13;;;7.57;;
47659;SDS011;33403;43.608;1.458;2023-05-20T06:46:53;11.75;;;7.65;;
47659;SDS011;33403;43.608;1.458;2023-05-20T06:49:19;10.65;;;7.22;;
47659;SDS011;33403;43.608;1.458;2023-05-20T06:51:44;15.38;;;7.90;;
47659;SDS011;33403;43.608;1.458;2023-05-20T06:54:10;13.65;;;7.47;;
47659;SDS011;33403;43.608;1.458;2023-05-20T06:56:36;16.95;;;7.80;;
47659;SDS011;33403;43.608;1.458;2023-05-20T06:59:01;14.68;;;7.75;;
47659;SDS011;33403;43.608;1.458;2023-05-20T07:01:27;14.82;;;7.15;;
47659;SDS011;33403;43.608;1.458;2023-05-20T07:03:53;10.27;;;7.18;;
47659;SDS011;33403;43.608;1.458;2023-05-20T07:06:18;11.38;;;7.25;;
47659;SDS011;33403;43.608;1.458;2023-05-20T07:08:44;13.25;;;6.90;;
47659;SDS011;33403;43.608;1.458;2023-05-20T07:11:09;12.18;;;7.38;;
47659;SDS011;33403;43.608;1.458;2023-05-20T07:13:35;14.95;;;7.25;;
47659;SDS011;33403;43.608;1.458;2023-05-20T07:16:01;14.07;;;7.35;;
47659;SDS011;33403;43.608;1.458;2023-05-20T07:18:27;12.88;;;6.57;;
47659;SDS011;33403;43.608;1.458;2023-05-20T07:20:53;11.02;;;6.68;;
47659;SDS011;33403;43.608;1.458;2023-05-20T07:23:20;10.70;;;6.55;;
47659;SDS011;33403;43.608;1.458;2023-05-20T07:25:46;12.10;;;7.18;;
47659;SDS011;33403;43.608;1.458;2023-05-20T07:28:14;11.85;;;6.97;;
47659;SDS011;33403;43.608;1.458;2023-05-20T07:30:41;8.70;;;6.30;;
47659;SDS011;33403;43.608;1.458;2023-05-20T07:33:06;10.05;;;6.78;;
47659;SDS011;33403;43.608;1.458;2023-05-20T07:35:32;11.98;;;6.80;;
47659;SDS011;33403;43.608;1.458;2023-05-20T07:37:57;13.32;;;7.07;;
47659;SDS011;33403;43.608;1.458;2023-05-20T07:40:23;10.25;;;6.75;;
47659;SDS011;33403;43.608;1.458;2023-05-20T07:42:49;12.35;;;6.63;;
47659;SDS011;33403;43.608;1.458;2023-05-20T07:45:14;11.80;;;6.82;;
47659;SDS011;33403;43.608;1.458;2023-05-20T07:47:40;8.07;;;6.25;;
47659;SDS011;33403;43.608;1.458;2023-05-20T07:50:06;14.13;;;6.80;;
47659;SDS011;33403;43.608;1.458;2023-05-20T07:52:32;10.00;;;6.28;;
47659;SDS011;33403;43.608;1.458;2023-05-20T07:54:57;9.13;;;6.03;;
47659;SDS011;33403;43.608;1.458;2023-05-20T07:57:23;11.75;;;6.25;;
47659;SDS011;33403;43.608;1.458;2023-05-20T07:59:49;8.85;;;6.07;;
47659;SDS011;33403;43.608;1.458;2023-05-20T08:02:14;10.60;;;6.10;;
47659;SDS011;33403;43.608;1.458;2023-05-20T08:04:41;9.32;;;5.78;;
47659;SDS011;33403;43.608;1.458;2023-05-20T08:07:07;13.52;;;6.00;;
47659;SDS011;33403;43.608;1.458;2023-05-20T08:09:32;8.02;;;5.60;;
47659;SDS011;33403;43.608;1.458;2023-05-20T08:11:58;10.43;;;5.57;;
47659;SDS011;33403;43.608;1.458;2023-05-20T08:14:24;9.60;;;5.78;;
47659;SDS011;33403;43.608;1.458;2023-05-20T08:16:50;10.50;;;5.97;;
47659;SDS011;33403;43.608;1.458;2023-05-20T08:19:15;10.90;;;6.25;;
47659;SDS011;33403;43.608;1.458;2023-05-20T08:21:41;10.40;;;5.32;;
47659;SDS011;33403;43.608;1.458;2023-05-20T08:24:07;9.10;;;5.65;;
47659;SDS011;33403;43.608;1.458;2023-05-20T08:26:33;10.05;;;6.03;;
47659;SDS011;33403;43.608;1.458;2023-05-20T08:28:58;7.47;;;5.53;;
47659;SDS011;33403;43.608;1.458;2023-05-20T08:31:24;9.10;;;5.57;;
47659;SDS011;33403;43.608;1.458;2023-05-20T08:33:50;8.32;;;5.30;;
47659;SDS011;33403;43.608;1.458;2023-05-20T08:36:15;8.65;;;5.35;;
47659;SDS011;33403;43.608;1.458;2023-05-20T08:38:41;6.35;;;5.18;;
47659;SDS011;33403;43.608;1.458;2023-05-20T08:41:07;9.55;;;5.05;;
47659;SDS011;33403;43.608;1.458;2023-05-20T08:43:33;9.95;;;5.80;;
47659;SDS011;33403;43.608;1.458;2023-05-20T08:45:59;10.95;;;5.20;;
47659;SDS011;33403;43.608;1.458;2023-05-20T08:48:27;8.05;;;5.10;;
47659;SDS011;33403;43.608;1.458;2023-05-20T08:50:54;10.30;;;5.53;;
47659;SDS011;33403;43.608;1.458;2023-05-20T08:53:21;7.13;;;4.78;;
47659;SDS011;33403;43.608;1.458;2023-05-20T08:55:51;11.00;;;5.00;;
47659;SDS011;33403;43.608;1.458;2023-05-20T08:58:17;8.90;;;5.10;;
47659;SDS011;33403;43.608;1.458;2023-05-20T09:00:44;7.07;;;4.50;;
47659;SDS011;33403;43.608;1.458;2023-05-20T09:03:09;8.13;;;5.18;;
47659;SDS011;33403;43.608;1.458;2023-05-20T09:05:35;8.07;;;5.07;;
47659;SDS011;33403;43.608;1.458;2023-05-20T09:08:07;6.47;;;4.82;;
47659;SDS011;33403;43.608;1.458;2023-05-20T09:10:34;10.63;;;5.32;;
47659;SDS011;33403;43.608;1.458;2023-05-20T09:13:01;7.30;;;4.90;;
47659;SDS011;33403;43.608;1.458;2023-05-20T09:15:28;7.50;;;4.75;;
47659;SDS011;33403;43.608;1.458;2023-05-20T09:18:01;8.35;;;5.18;;
47659;SDS011;33403;43.608;1.458;2023-05-20T09:20:28;7.03;;;5.13;;
47659;SDS011;33403;43.608;1.458;2023-05-20T09:23:02;8.75;;;4.97;;
47659;SDS011;33403;43.608;1.458;2023-05-20T09:25:29;8.60;;;4.90;;
47659;SDS011;33403;43.608;1.458;2023-05-20T09:27:55;10.52;;;5.30;;
47659;SDS011;33403;43.608;1.458;2023-05-20T09:30:20;8.43;;;4.93;;
47659;SDS011;33403;43.608;1.458;2023-05-20T09:32:56;10.43;;;5.18;;
47659;SDS011;33403;43.608;1.458;2023-05-20T09:35:24;7.15;;;4.95;;
47659;SDS011;33403;43.608;1.458;2023-05-20T09:37:51;10.18;;;5.50;;
47659;SDS011;33403;43.608;1.458;2023-05-20T09:40:22;8.07;;;4.78;;
47659;SDS011;33403;43.608;1.458;2023-05-20T09:42:53;8.27;;;4.70;;
47659;SDS011;33403;43.608;1.458;2023-05-20T09:45:19;9.68;;;4.60;;
47659;SDS011;33403;43.608;1.458;2023-05-20T09:47:51;8.02;;;4.82;;
47659;SDS011;33403;43.608;1.458;2023-05-20T09:50:18;6.80;;;4.93;;
47659;SDS011;33403;43.608;1.458;2023-05-20T09:52:45;10.32;;;4.63;;
47659;SDS011;33403;43.608;1.458;2023-05-20T09:55:13;7.28;;;4.10;;
47659;SDS011;33403;43.608;1.458;2023-05-20T09:57:40;7.90;;;4.65;;
47659;SDS011;33403;43.608;1.458;2023-05-20T10:00:06;8.30;;;4.80;;
47659;SDS011;33403;43.608;1.458;2023-05-20T10:02:32;7.00;;;4.70;;
47659;SDS011;33403;43.608;1.458;2023-05-20T10:05:00;6.85;;;4.55;;
47659;SDS011;33403;43.608;1.458;2023-05-20T10:15:57;8.55;;;5.00;;
47659;SDS011;33403;43.608;1.458;2023-05-20T10:21:17;8.18;;;4.25;;
47659;SDS011;33403;43.608;1.458;2023-05-20T10:23:46;7.60;;;4.50;;
47659;SDS011;33403;43.608;1.458;2023-05-20T10:26:12;5.90;;;4.28;;
47659;SDS011;33403;43.608;1.458;2023-05-20T10:28:39;7.78;;;4.53;;
47659;SDS011;33403;43.608;1.458;2023-05-20T10:31:21;6.30;;;4.47;;
47659;SDS011;33403;43.608;1.458;2023-05-20T10:33:50;8.25;;;4.50;;
47659;SDS011;33403;43.608;1.458;2023-05-20T10:36:27;6.45;;;4.43;;
47659;SDS011;33403;43.608;1.458;2023-05-20T10:38:55;4.85;;;3.80;;
47659;SDS011;33403;43.608;1.458;2023-05-20T10:41:23;5.13;;;4.15;;
47659;SDS011;33403;43.608;1.458;2023-05-20T10:44:01;9.40;;;4.68;;
47659;SDS011;33403;43.608;1.458;2023-05-20T10:46:28;9.95;;;4.28;;
47659;SDS011;33403;43.608;1.458;2023-05-20T10:48:54;7.28;;;4.07;;
47659;SDS011;33403;43.608;1.458;2023-05-20T10:51:20;7.85;;;4.38;;
47659;SDS011;33403;43.608;1.458;2023-05-20T10:53:46;8.45;;;3.92;;
47659;SDS011;33403;43.608;1.458;2023-05-20T10:56:18;6.43;;;3.63;;
47659;SDS011;33403;43.608;1.458;2023-05-20T10:58:45;6.70;;;3.75;;
47659;SDS011;33403;43.608;1.458;2023-05-20T11:01:11;7.22;;;3.88;;
47659;SDS011;33403;43.608;1.458;2023-05-20T11:03:39;5.00;;;3.42;;
47659;SDS011;33403;43.608;1.458;2023-05-20T11:06:11;6.63;;;3.63;;
47659;SDS011;33403;43.608;1.458;2023-05-20T11:08:37;6.28;;;3.40;;
47659;SDS011;33403;43.608;1.458;2023-05-20T11:11:03;5.22;;;3.50;;
47659;SDS011;33403;43.608;1.458;2023-05-20T11:13:29;6.05;;;3.50;;
47659;SDS011;33403;43.608;1.458;2023-05-20T11:15:55;10.55;;;3.63;;
47659;SDS011;33403;43.608;1.458;2023-05-20T11:18:22;6.78;;;3.30;;
47659;SDS011;33403;43.608;1.458;2023-05-20T11:20:47;5.28;;;3.45;;
47659;SDS011;33403;43.608;1.458;2023-05-20T11:23:13;5.57;;;3.28;;
47659;SDS011;33403;43.608;1.458;2023-05-20T11:25:39;6.97;;;3.38;;
47659;SDS011;33403;43.608;1.458;2023-05-20T11:28:11;3.88;;;3.00;;
47659;SDS011;33403;43.608;1.458;2023-05-20T11:30:38;3.70;;;3.00;;
47659;SDS011;33403;43.608;1.458;2023-05-20T11:33:05;5.10;;;3.17;;
47659;SDS011;33403;43.608;1.458;2023-05-20T11:35:31;5.50;;;3.20;;
47659;SDS011;33403;43.608;1.458;2023-05-20T11:38:00;8.30;;;3.33;;
47659;SDS011;33403;43.608;1.458;2023-05-20T11:40:30;4.32;;;3.17;;
47659;SDS011;33403;43.608;1.458;2023-05-20T11:42:58;6.03;;;3.25;;
47659;SDS011;33403;43.608;1.458;2023-05-20T11:45:24;5.82;;;3.20;;
47659;SDS011;33403;43.608;1.458;2023-05-20T11:48:03;4.47;;;3.10;;
47659;SDS011;33403;43.608;1.458;2023-05-20T11:50:34;5.70;;;3.15;;
47659;SDS011;33403;43.608;1.458;2023-05-20T11:53:03;4.18;;;2.78;;
47659;SDS011;33403;43.608;1.458;2023-05-20T11:55:30;4.63;;;2.83;;
47659;SDS011;33403;43.608;1.458;2023-05-20T11:57:59;3.92;;;2.65;;
47659;SDS011;33403;43.608;1.458;2023-05-20T12:00:26;4.07;;;2.30;;
47659;SDS011;33403;43.608;1.458;2023-05-20T12:02:52;5.40;;;2.80;;
47659;SDS011;33403;43.608;1.458;2023-05-20T12:05:17;5.45;;;2.85;;
47659;SDS011;33403;43.608;1.458;2023-05-20T12:07:44;4.20;;;2.90;;
47659;SDS011;33403;43.608;1.458;2023-05-20T12:10:10;4.18;;;2.90;;
47659;SDS011;33403;43.608;1.458;2023-05-20T12:12:37;5.85;;;2.45;;
47659;SDS011;33403;43.608;1.458;2023-05-20T12:15:03;4.20;;;2.90;;
47659;SDS011;33403;43.608;1.458;2023-05-20T12:17:30;5.25;;;2.78;;
47659;SDS011;33403;43.608;1.458;2023-05-20T12:20:07;5.05;;;3.05;;
47659;SDS011;33403;43.608;1.458;2023-05-20T12:22:34;5.63;;;3.00;;
47659;SDS011;33403;43.608;1.458;2023-05-20T12:25:00;4.28;;;2.65;;
47659;SDS011;33403;43.608;1.458;2023-05-20T12:27:25;6.05;;;3.03;;
47659;SDS011;33403;43.608;1.458;2023-05-20T12:29:52;4.10;;;2.80;;
47659;SDS011;33403;43.608;1.458;2023-05-20T12:32:17;5.43;;;2.60;;
47659;SDS011;33403;43.608;1.458;2023-05-20T12:34:44;6.15;;;3.05;;
47659;SDS011;33403;43.608;1.458;2023-05-20T12:37:10;4.53;;;2.80;;
47659;SDS011;33403;43.608;1.458;2023-05-20T12:39:36;4.53;;;2.80;;
47659;SDS011;33403;43.608;1.458;2023-05-20T12:42:02;4.22;;;3.05;;
47659;SDS011;33403;43.608;1.458;2023-05-20T12:44:27;4.80;;;3.05;;
47659;SDS011;33403;43.608;1.458;2023-05-20T12:46:53;7.43;;;3.05;;
47659;SDS011;33403;43.608;1.458;2023-05-20T12:49:19;6.10;;;2.80;;
47659;SDS011;33403;43.608;1.458;2023-05-20T12:51:45;5.82;;;2.85;;
47659;SDS011;33403;43.608;1.458;2023-05-20T12:54:10;5.10;;;2.70;;
47659;SDS011;33403;43.608;1.458;2023-05-20T12:56:36;5.45;;;2.78;;
47659;SDS011;33403;43.608;1.458;2023-05-20T12:59:03;5.25;;;2.95;;
47659;SDS011;33403;43.608;1.458;2023-05-20T13:01:28;5.32;;;3.00;;
47659;SDS011;33403;43.608;1.458;2023-05-20T13:03:54;4.50;;;2.92;;
47659;SDS011;33403;43.608;1.458;2023-05-20T13:06:20;4.00;;;2.58;;
47659;SDS011;33403;43.608;1.458;2023-05-20T13:08:45;3.00;;;2.70;;
47659;SDS011;33403;43.608;1.458;2023-05-20T13:11:11;9.82;;;2.97;;
47659;SDS011;33403;43.608;1.458;2023-05-20T13:13:37;4.07;;;2.50;;
47659;SDS011;33403;43.608;1.458;2023-05-20T13:16:02;3.70;;;2.70;;
47659;SDS011;33403;43.608;1.458;2023-05-20T13:18:28;4.47;;;2.85;;
47659;SDS011;33403;43.608;1.458;2023-05-20T13:20:54;4.18;;;2.70;;
47659;SDS011;33403;43.608;1.458;2023-05-20T13:23:20;2.90;;;2.50;;
47659;SDS011;33403;43.608;1.458;2023-05-20T13:25:45;6.20;;;2.92;;
47659;SDS011;33403;43.608;1.458;2023-05-20T13:28:11;3.05;;;2.42;;
47659;SDS011;33403;43.608;1.458;2023-05-20T13:30:40;3.00;;;2.50;;
47659;SDS011;33403;43.608;1.458;2023-05-20T13:33:06;4.03;;;2.60;;
47659;SDS011;33403;43.608;1.458;2023-05-20T13:35:32;5.25;;;2.60;;
47659;SDS011;33403;43.608;1.458;2023-05-20T13:37:58;3.40;;;2.40;;
47659;SDS011;33403;43.608;1.458;2023-05-20T13:40:23;4.25;;;2.60;;
47659;SDS011;33403;43.608;1.458;2023-05-20T13:42:49;4.05;;;2.70;;
47659;SDS011;33403;43.608;1.458;2023-05-20T13:45:15;4.28;;;2.50;;
47659;SDS011;33403;43.608;1.458;2023-05-20T13:47:42;4.25;;;2.72;;
47659;SDS011;33403;43.608;1.458;2023-05-20T13:50:08;6.13;;;2.58;;
47659;SDS011;33403;43.608;1.458;2023-05-20T13:52:34;10.80;;;2.67;;
47659;SDS011;33403;43.608;1.458;2023-05-20T13:55:00;5.00;;;2.80;;
47659;SDS011;33403;43.608;1.458;2023-05-20T13:57:25;3.58;;;2.67;;
47659;SDS011;33403;43.608;1.458;2023-05-20T13:59:51;4.00;;;2.70;;
47659;SDS011;33403;43.608;1.458;2023-05-20T14:02:17;3.25;;;2.50;;
47659;SDS011;33403;43.608;1.458;2023-05-20T14:04:43;4.10;;;2.70;;
47659;SDS011;33403;43.608;1.458;2023-05-20T14:07:11;4.43;;;2.60;;
47659;SDS011;33403;43.608;1.458;2023-05-20T14:09:37;4.28;;;2.20;;
47659;SDS011;33403;43.608;1.458;2023-05-20T14:12:03;4.28;;;2.40;;
47659;SDS011;33403;43.608;1.458;2023-05-20T14:14:29;4.00;;;2.40;;
47659;SDS011;33403;43.608;1.458;2023-05-20T14:16:55;5.35;;;2.58;;
47659;SDS011;33403;43.608;1.458;2023-05-20T14:19:20;3.92;;;2.40;;
47659;SDS011;33403;43.608;1.458;2023-05-20T14:21:46;3.10;;;2.38;;
47659;SDS011;33403;43.608;1.458;2023-05-20T14:24:12;5.20;;;2.28;;
47659;SDS011;33403;43.608;1.458;2023-05-20T14:26:37;4.32;;;2.22;;
47659;SDS011;33403;43.608;1.458;2023-05-20T14:29:03;5.57;;;2.50;;
47659;SDS011;33403;43.608;1.458;2023-05-20T14:31:29;4.18;;;2.50;;
47659;SDS011;33403;43.608;1.458;2023-05-20T14:33:54;2.30;;;2.05;;
47659;SDS011;33403;43.608;1.458;2023-05-20T14:36:20;2.33;;;2.13;;
47659;SDS011;33403;43.608;1.458;2023-05-20T14:38:45;3.58;;;2.28;;
47659;SDS011;33403;43.608;1.458;2023-05-20T14:41:12;5.18;;;2.20;;
47659;SDS011;33403;43.608;1.458;2023-05-20T14:43:37;4.97;;;2.00;;
47659;SDS011;33403;43.608;1.458;2023-05-20T14:46:03;9.90;;;2.40;;
47659;SDS011;33403;43.608;1.458;2023-05-20T14:48:29;5.18;;;2.30;;
47659;SDS011;33403;43.608;1.458;2023-05-20T14:50:54;3.85;;;2.33;;